createdAt,value
2023-05-21T00:06:33.019Z,100614.03
2023-05-21T00:22:51.009Z,100605.47
2023-05-21T00:25:31.898Z,100606.78
2023-05-21T00:28:00.463Z,100597.38
2023-05-21T00:30:31.802Z,100601.31
2023-05-21T00:33:03.328Z,100597.88
2023-05-21T00:35:39.097Z,100599.50
2023-05-21T00:38:08.809Z,100581.44
2023-05-21T00:40:39.393Z,100580.09
2023-05-21T00:43:11.099Z,100593.34
2023-05-21T00:45:46.808Z,100591.91
2023-05-21T00:48:17.029Z,100597.09
2023-05-21T00:50:45.075Z,100596.00
2023-05-21T00:53:15.727Z,100601.53
2023-05-21T00:55:43.923Z,100605.47
2023-05-21T00:58:12.290Z,100593.06
2023-05-21T01:00:40.823Z,100598.78
2023-05-21T01:03:12.109Z,100601.22
2023-05-21T01:05:40.062Z,100605.16
2023-05-21T01:08:10.540Z,100599.78
2023-05-21T01:10:38.388Z,100596.22
2023-05-21T01:13:06.736Z,100594.94
2023-05-21T01:15:35.798Z,100599.38
2023-05-21T01:18:05.026Z,100599.72
2023-05-21T01:20:32.856Z,100600.72
2023-05-21T01:23:03.732Z,100594.22
2023-05-21T01:25:31.333Z,100601.25
2023-05-21T01:28:01.685Z,100598.00
2023-05-21T01:30:32.155Z,100602.09
2023-05-21T01:33:10.855Z,100603.91
2023-05-21T01:35:50.632Z,100601.78
2023-05-21T01:38:28.240Z,100609.63
2023-05-21T01:41:06.016Z,100608.50
2023-05-21T01:43:39.967Z,100599.69
2023-05-21T01:46:10.905Z,100596.75
2023-05-21T01:48:41.326Z,100592.53
2023-05-21T01:51:13.980Z,100582.72
2023-05-21T01:53:41.809Z,100596.94
2023-05-21T01:56:09.505Z,100590.91
2023-05-21T01:58:37.457Z,100589.66
2023-05-21T02:01:08.922Z,100593.88
2023-05-21T02:03:38.094Z,100592.75
2023-05-21T02:06:06.446Z,100589.34
2023-05-21T02:08:34.203Z,100597.38
2023-05-21T02:11:02.533Z,100595.75
2023-05-21T02:13:33.447Z,100590.06
2023-05-21T02:16:01.688Z,100589.06
2023-05-21T02:18:30.046Z,100584.50
2023-05-21T02:20:58.225Z,100598.56
2023-05-21T02:23:26.351Z,100597.25
2023-05-21T02:25:54.788Z,100593.66
2023-05-21T02:28:24.884Z,100588.63
2023-05-21T02:30:52.901Z,100593.00
2023-05-21T02:33:22.303Z,100593.50
2023-05-21T02:35:50.115Z,100598.91
2023-05-21T02:38:19.621Z,100592.69
2023-05-21T02:40:47.910Z,100593.00
2023-05-21T02:43:16.255Z,100592.34
2023-05-21T02:45:46.477Z,100592.34
2023-05-21T02:48:15.827Z,100600.66
2023-05-21T02:50:45.770Z,100600.31
2023-05-21T02:53:13.655Z,100602.81
2023-05-21T02:55:42.172Z,100603.75
2023-05-21T02:58:10.255Z,100595.63
2023-05-21T03:00:40.662Z,100599.69
2023-05-21T03:03:08.729Z,100605.06
2023-05-21T03:05:37.257Z,100597.53
2023-05-21T03:08:05.654Z,100597.88
2023-05-21T03:10:33.420Z,100600.81
2023-05-21T03:13:05.403Z,100595.25
2023-05-21T03:15:34.862Z,100595.91
2023-05-21T03:18:03.172Z,100596.91
2023-05-21T03:20:30.902Z,100598.53
2023-05-21T03:22:58.783Z,100598.34
2023-05-21T03:25:31.685Z,100598.03
2023-05-21T03:27:59.635Z,100600.47
2023-05-21T03:30:49.746Z,100600.47
2023-05-21T03:33:44.030Z,100599.63
2023-05-21T03:36:30.687Z,100601.22
2023-05-21T03:38:59.709Z,100604.59
2023-05-21T03:41:27.608Z,100600.69
2023-05-21T03:44:01.388Z,100610.28
2023-05-21T03:46:37.742Z,100601.94
2023-05-21T03:49:12.171Z,100609.78
2023-05-21T03:51:42.408Z,100613.25
2023-05-21T03:54:14.169Z,100604.00
2023-05-21T03:56:42.404Z,100613.47
2023-05-21T03:59:10.581Z,100601.88
2023-05-21T04:01:39.231Z,100604.84
2023-05-21T04:04:13.058Z,100600.78
2023-05-21T04:06:42.428Z,100604.22
2023-05-21T04:09:12.048Z,100614.53
2023-05-21T04:11:39.834Z,100613.38
2023-05-21T04:14:08.081Z,100612.56
2023-05-21T04:16:38.814Z,100613.53
2023-05-21T04:19:09.435Z,100611.41
2023-05-21T04:21:37.308Z,100607.28
2023-05-21T04:24:06.404Z,100603.72
2023-05-21T04:26:57.543Z,100608.34
2023-05-21T04:29:26.027Z,100613.31
2023-05-21T04:31:54.110Z,100612.41
2023-05-21T04:34:21.877Z,100603.28
2023-05-21T04:36:50.202Z,100606.91
2023-05-21T04:39:17.956Z,100606.91
2023-05-21T04:41:45.686Z,100605.84
2023-05-21T04:44:15.200Z,100604.56
2023-05-21T04:46:46.259Z,100603.13
2023-05-21T04:49:16.964Z,100603.59
2023-05-21T04:51:45.406Z,100599.28
2023-05-21T04:54:16.056Z,100605.09
2023-05-21T04:56:44.550Z,100612.50
2023-05-21T04:59:12.743Z,100614.97
2023-05-21T05:01:41.713Z,100615.97
2023-05-21T05:04:09.699Z,100617.44
2023-05-21T05:06:37.335Z,100618.41
2023-05-21T05:09:05.974Z,100610.28
2023-05-21T05:11:33.905Z,100615.69
2023-05-21T05:14:03.940Z,100617.78
2023-05-21T05:16:33.233Z,100619.50
2023-05-21T05:19:00.818Z,100618.31
2023-05-21T05:21:29.196Z,100618.78
2023-05-21T05:23:56.985Z,100615.50
2023-05-21T05:26:28.302Z,100621.25
2023-05-21T05:28:57.048Z,100629.00
2023-05-21T05:31:27.268Z,100623.81
2023-05-21T05:33:55.857Z,100627.78
2023-05-21T05:36:25.135Z,100627.59
2023-05-21T05:38:53.608Z,100621.06
2023-05-21T05:41:22.772Z,100620.28
2023-05-21T05:43:53.190Z,100626.72
2023-05-21T05:46:22.975Z,100629.50
2023-05-21T05:48:51.980Z,100621.00
2023-05-21T05:51:19.503Z,100628.28
2023-05-21T05:53:47.360Z,100630.25
2023-05-21T05:56:17.672Z,100627.50
2023-05-21T05:58:45.922Z,100628.13
2023-05-21T06:01:16.577Z,100643.59
2023-05-21T06:03:45.623Z,100640.56
2023-05-21T06:06:17.479Z,100633.84
2023-05-21T06:08:46.392Z,100634.03
2023-05-21T06:11:17.384Z,100637.22
2023-05-21T06:13:45.833Z,100635.19
2023-05-21T06:16:14.693Z,100632.66
2023-05-21T06:18:42.378Z,100640.63
2023-05-21T06:21:10.609Z,100628.84
2023-05-21T06:23:40.179Z,100635.25
2023-05-21T06:26:08.448Z,100624.03
2023-05-21T06:28:36.523Z,100619.03
2023-05-21T06:31:04.955Z,100625.75
2023-05-21T06:33:34.523Z,100632.50
2023-05-21T06:36:02.266Z,100630.09
2023-05-21T06:38:30.756Z,100628.41
2023-05-21T06:40:59.550Z,100622.06
2023-05-21T06:43:49.902Z,100622.69
2023-05-21T06:46:36.850Z,100622.50
2023-05-21T06:49:14.597Z,100616.22
2023-05-21T06:51:43.853Z,100619.88
2023-05-21T06:54:13.593Z,100617.25
2023-05-21T06:56:42.171Z,100628.41
2023-05-21T06:59:10.996Z,100612.19
2023-05-21T07:01:42.826Z,100622.75
2023-05-21T07:04:11.306Z,100632.25
2023-05-21T07:06:42.925Z,100623.31
2023-05-21T07:09:10.991Z,100621.28
2023-05-21T07:11:39.562Z,100621.44
2023-05-21T07:14:09.494Z,100628.69
2023-05-21T07:16:39.480Z,100626.69
2023-05-21T07:19:10.620Z,100620.69
2023-05-21T07:21:38.700Z,100622.72
2023-05-21T07:24:08.255Z,100624.75
2023-05-21T07:26:43.036Z,100630.03
2023-05-21T07:29:12.061Z,100619.09
2023-05-21T07:31:40.315Z,100618.66
2023-05-21T07:34:11.563Z,100621.13
2023-05-21T07:36:44.180Z,100629.00
2023-05-21T07:39:15.752Z,100619.88
2023-05-21T07:41:46.708Z,100629.19
2023-05-21T07:44:16.417Z,100622.91
2023-05-21T07:46:46.358Z,100621.31
2023-05-21T07:49:17.770Z,100613.00
2023-05-21T07:51:48.793Z,100623.53
2023-05-21T07:54:17.037Z,100616.03
2023-05-21T07:56:45.707Z,100626.75
2023-05-21T07:59:26.284Z,100618.75
2023-05-21T08:01:54.659Z,100615.66
2023-05-21T08:04:23.181Z,100628.03
2023-05-21T08:06:52.716Z,100623.38
2023-05-21T08:09:20.711Z,100618.88
2023-05-21T08:11:48.783Z,100626.13
2023-05-21T08:14:16.376Z,100617.59
2023-05-21T08:16:45.341Z,100622.16
2023-05-21T08:19:13.509Z,100623.06
2023-05-21T08:21:41.557Z,100619.63
2023-05-21T08:24:10.507Z,100617.59
2023-05-21T08:26:39.641Z,100617.38
2023-05-21T08:29:07.747Z,100619.78
2023-05-21T08:32:03.084Z,100622.03
2023-05-21T08:34:32.490Z,100617.50
2023-05-21T08:37:13.798Z,100620.28
2023-05-21T08:40:08.336Z,100614.59
2023-05-21T08:42:45.571Z,100615.34
2023-05-21T08:45:22.882Z,100623.09
2023-05-21T08:47:57.743Z,100618.19
2023-05-21T08:50:28.465Z,100612.03
2023-05-21T08:53:04.044Z,100619.56
2023-05-21T08:55:39.326Z,100613.03
2023-05-21T08:58:07.692Z,100608.88
2023-05-21T09:00:35.795Z,100617.00
2023-05-21T09:03:10.820Z,100630.41
2023-05-21T09:05:44.956Z,100621.72
2023-05-21T09:08:32.578Z,100624.53
2023-05-21T09:11:04.304Z,100618.69
2023-05-21T09:13:39.680Z,100617.88
2023-05-21T09:16:14.325Z,100618.88
2023-05-21T09:18:44.028Z,100610.75
2023-05-21T09:21:28.827Z,100621.50
2023-05-21T09:24:03.365Z,100615.00
2023-05-21T09:26:34.363Z,100616.38
2023-05-21T09:29:05.692Z,100618.53
2023-05-21T09:31:33.894Z,100626.06
2023-05-21T09:34:02.513Z,100622.25
2023-05-21T09:36:34.950Z,100626.78
2023-05-21T09:39:03.529Z,100623.94
2023-05-21T09:41:34.691Z,100622.88
2023-05-21T09:44:03.086Z,100618.75
2023-05-21T09:46:40.372Z,100637.13
2023-05-21T09:49:25.181Z,100622.94
2023-05-21T09:52:00.399Z,100628.97
2023-05-21T09:54:33.807Z,100622.78
2023-05-21T09:57:05.064Z,100614.34
2023-05-21T09:59:40.308Z,100629.84
2023-05-21T10:02:32.196Z,100622.19
2023-05-21T10:05:00.960Z,100625.31
2023-05-21T10:07:33.025Z,100634.91
2023-05-21T10:10:06.155Z,100628.22
2023-05-21T10:12:35.042Z,100620.53
2023-05-21T10:15:09.978Z,100635.72
2023-05-21T10:17:38.604Z,100641.38
2023-05-21T10:20:08.664Z,100640.97
2023-05-21T10:22:37.841Z,100627.16
2023-05-21T10:25:07.994Z,100630.00
2023-05-21T10:27:37.876Z,100633.28
2023-05-21T10:30:08.814Z,100632.88
2023-05-21T10:32:37.060Z,100623.38
2023-05-21T10:35:05.841Z,100626.66
2023-05-21T10:37:36.573Z,100632.06
2023-05-21T10:40:05.158Z,100628.81
2023-05-21T10:42:35.952Z,100627.06
2023-05-21T10:45:27.307Z,100610.53
2023-05-21T10:48:02.087Z,100624.31
2023-05-21T10:50:30.139Z,100618.19
2023-05-21T10:53:09.959Z,100622.00
2023-05-21T10:55:52.302Z,100623.97
2023-05-21T10:58:38.348Z,100636.16
2023-05-21T11:01:07.676Z,100627.00
2023-05-21T11:03:38.052Z,100632.28
2023-05-21T11:06:06.712Z,100629.03
2023-05-21T11:08:39.337Z,100626.81
2023-05-21T11:11:09.974Z,100630.31
2023-05-21T11:13:51.608Z,100621.72
2023-05-21T11:16:22.456Z,100623.31
2023-05-21T11:18:50.450Z,100632.88
2023-05-21T11:21:21.286Z,100631.50
2023-05-21T11:24:03.226Z,100639.59
2023-05-21T11:26:56.238Z,100629.78
2023-05-21T11:29:33.684Z,100617.53
2023-05-21T11:32:03.247Z,100631.78
2023-05-21T11:34:41.899Z,100623.19
2023-05-21T11:37:19.275Z,100625.69
2023-05-21T11:39:48.238Z,100629.50
2023-05-21T11:42:41.554Z,100626.59
2023-05-21T11:45:12.598Z,100624.84
2023-05-21T11:47:40.912Z,100621.94
2023-05-21T11:50:14.301Z,100623.00
2023-05-21T11:52:44.713Z,100621.38
2023-05-21T11:55:14.041Z,100625.63
2023-05-21T11:57:48.359Z,100616.41
2023-05-21T12:00:17.620Z,100627.78
2023-05-21T12:02:53.994Z,100623.31
2023-05-21T12:05:23.672Z,100631.94
2023-05-21T12:07:51.741Z,100635.25
2023-05-21T12:10:24.315Z,100633.44
2023-05-21T12:12:56.935Z,100632.69
2023-05-21T12:15:27.300Z,100639.00
2023-05-21T12:17:56.348Z,100631.91
2023-05-21T12:20:27.319Z,100640.38
2023-05-21T12:22:55.190Z,100631.91
2023-05-21T12:25:23.359Z,100640.41
2023-05-21T12:27:58.019Z,100651.66
2023-05-21T12:30:26.889Z,100647.03
2023-05-21T12:32:58.448Z,100643.41
2023-05-21T12:35:26.558Z,100642.38
2023-05-21T12:37:54.490Z,100644.81
2023-05-21T12:40:22.483Z,100640.47
2023-05-21T12:42:51.140Z,100647.91
2023-05-21T12:45:19.347Z,100645.34
2023-05-21T12:47:56.669Z,100646.19
2023-05-21T12:50:25.025Z,100639.00
2023-05-21T12:52:58.803Z,100628.09
2023-05-21T12:55:26.768Z,100627.28
2023-05-21T12:58:09.319Z,100630.00
2023-05-21T13:00:38.379Z,100621.94
2023-05-21T13:03:09.052Z,100618.69
2023-05-21T13:05:41.836Z,100624.03
2023-05-21T13:08:12.820Z,100621.34
2023-05-21T13:10:41.040Z,100615.63
2023-05-21T13:13:09.498Z,100619.28
2023-05-21T13:15:37.268Z,100613.91
2023-05-21T13:18:05.137Z,100620.75
2023-05-21T13:20:33.145Z,100622.28
2023-05-21T13:23:02.935Z,100619.59
2023-05-21T13:25:33.006Z,100621.59
2023-05-21T13:28:05.542Z,100625.53
2023-05-21T13:30:34.100Z,100625.75
2023-05-21T13:33:07.439Z,100633.63
2023-05-21T13:35:35.812Z,100633.44
2023-05-21T13:38:03.824Z,100621.91
2023-05-21T13:40:31.775Z,100630.94
2023-05-21T13:43:00.159Z,100629.94
2023-05-21T13:45:29.457Z,100625.88
2023-05-21T13:47:57.640Z,100628.13
2023-05-21T13:50:25.633Z,100636.22
2023-05-21T13:52:53.586Z,100627.00
2023-05-21T13:55:21.670Z,100631.38
2023-05-21T13:57:49.492Z,100629.59
2023-05-21T14:00:17.312Z,100635.72
2023-05-21T14:02:45.346Z,100637.84
2023-05-21T14:05:13.869Z,100628.34
2023-05-21T14:07:42.241Z,100631.50
2023-05-21T14:10:10.362Z,100632.31
2023-05-21T14:12:38.665Z,100633.03
2023-05-21T14:15:12.059Z,100626.97
2023-05-21T14:17:40.793Z,100622.81
2023-05-21T14:20:10.799Z,100615.25
2023-05-21T14:22:39.050Z,100622.50
2023-05-21T14:25:07.254Z,100624.94
2023-05-21T14:27:37.945Z,100618.34
2023-05-21T14:30:07.129Z,100611.84
2023-05-21T14:32:34.663Z,100616.19
2023-05-21T14:35:02.585Z,100603.66
2023-05-21T14:37:31.750Z,100611.25
2023-05-21T14:39:59.693Z,100612.03
2023-05-21T14:42:27.467Z,100614.13
2023-05-21T14:44:55.128Z,100611.03
2023-05-21T14:47:23.203Z,100608.22
2023-05-21T14:49:51.724Z,100613.13
2023-05-21T14:52:20.578Z,100617.25
2023-05-21T14:54:48.725Z,100611.28
2023-05-21T14:57:18.610Z,100615.63
2023-05-21T14:59:46.593Z,100622.41
2023-05-21T15:02:14.318Z,100619.88
2023-05-21T15:04:41.962Z,100615.44
2023-05-21T15:07:09.489Z,100618.63
2023-05-21T15:09:37.748Z,100615.88
2023-05-21T15:12:05.731Z,100619.16
2023-05-21T15:14:33.974Z,100619.81
2023-05-21T15:17:01.687Z,100620.44
2023-05-21T15:19:32.763Z,100612.34
2023-05-21T15:22:01.359Z,100610.19
2023-05-21T15:24:29.028Z,100613.56
2023-05-21T15:26:56.811Z,100611.88
2023-05-21T15:29:24.695Z,100611.34
2023-05-21T15:31:52.632Z,100618.13
2023-05-21T15:34:20.222Z,100613.47
2023-05-21T15:36:47.731Z,100621.59
2023-05-21T15:39:17.528Z,100616.44
2023-05-21T15:41:45.120Z,100617.84
2023-05-21T15:44:13.226Z,100616.50
2023-05-21T15:46:40.908Z,100611.13
2023-05-21T15:49:08.724Z,100615.75
2023-05-21T15:51:36.468Z,100610.59
2023-05-21T15:54:04.524Z,100612.69
2023-05-21T15:56:32.443Z,100609.69
2023-05-21T15:59:01.510Z,100609.97
2023-05-21T16:01:29.294Z,100604.47
2023-05-21T16:03:57.135Z,100613.84
2023-05-21T16:06:24.805Z,100614.94
2023-05-21T16:08:54.985Z,100619.03
2023-05-21T16:11:22.808Z,100617.97
2023-05-21T16:13:50.873Z,100621.16
2023-05-21T16:16:18.581Z,100621.44
2023-05-21T16:18:46.460Z,100624.09
2023-05-21T16:21:14.368Z,100624.94
2023-05-21T16:23:42.452Z,100620.09
2023-05-21T16:26:10.542Z,100627.28
2023-05-21T16:28:40.452Z,100624.16
2023-05-21T16:31:09.292Z,100617.59
2023-05-21T16:33:38.552Z,100617.50
2023-05-21T16:36:06.286Z,100622.63
2023-05-21T16:38:36.639Z,100619.72
2023-05-21T16:41:05.037Z,100622.41
2023-05-21T16:43:32.545Z,100624.69
2023-05-21T16:46:00.182Z,100626.41
2023-05-21T16:48:28.513Z,100633.59
2023-05-21T16:50:56.176Z,100624.09
2023-05-21T16:53:24.331Z,100627.88
2023-05-21T16:55:51.839Z,100625.94
2023-05-21T16:58:19.420Z,100623.56
2023-05-21T17:00:47.564Z,100627.59
2023-05-21T17:03:15.364Z,100622.91
2023-05-21T17:05:43.277Z,100615.97
2023-05-21T17:08:10.893Z,100625.03
2023-05-21T17:10:38.538Z,100628.19
2023-05-21T17:13:18.328Z,100622.03
2023-05-21T17:16:08.174Z,100624.28
2023-05-21T17:18:36.053Z,100628.97
2023-05-21T17:21:03.664Z,100628.84
2023-05-21T17:23:31.136Z,100628.66
2023-05-21T17:25:59.027Z,100645.28
2023-05-21T17:28:26.730Z,100636.31
2023-05-21T17:30:54.812Z,100636.00
2023-05-21T17:33:23.855Z,100626.69
2023-05-21T17:35:51.687Z,100639.47
2023-05-21T17:38:19.803Z,100640.34
2023-05-21T17:40:48.811Z,100636.88
2023-05-21T17:43:16.639Z,100641.25
2023-05-21T17:45:44.201Z,100641.97
2023-05-21T17:48:12.251Z,100642.72
2023-05-21T17:50:40.805Z,100641.34
2023-05-21T17:53:08.734Z,100650.94
2023-05-21T17:55:37.308Z,100647.13
2023-05-21T17:58:09.926Z,100647.34
2023-05-21T18:00:38.121Z,100646.44
2023-05-21T18:03:06.700Z,100650.41
2023-05-21T18:05:34.675Z,100656.00
2023-05-21T18:08:03.079Z,100655.81
2023-05-21T18:10:30.884Z,100656.00
2023-05-21T18:12:58.969Z,100650.13
2023-05-21T18:15:26.690Z,100655.88
2023-05-21T18:17:54.713Z,100655.16
2023-05-21T18:20:22.385Z,100655.22
2023-05-21T18:22:50.861Z,100653.03
2023-05-21T18:25:18.696Z,100652.81
2023-05-21T18:27:46.687Z,100651.06
2023-05-21T18:30:16.159Z,100648.34
2023-05-21T18:32:44.995Z,100653.66
2023-05-21T18:35:14.452Z,100662.38
2023-05-21T18:37:44.576Z,100656.06
2023-05-21T18:40:13.310Z,100659.06
2023-05-21T18:42:41.568Z,100649.28
2023-05-21T18:45:10.702Z,100652.09
2023-05-21T18:47:40.420Z,100654.75
2023-05-21T18:50:12.926Z,100642.03
2023-05-21T18:52:41.577Z,100657.22
2023-05-21T18:55:09.995Z,100640.94
2023-05-21T18:57:38.410Z,100648.13
2023-05-21T19:00:09.953Z,100655.63
2023-05-21T19:02:39.227Z,100652.22
2023-05-21T19:05:08.130Z,100657.63
2023-05-21T19:07:36.580Z,100662.50
2023-05-21T19:10:05.420Z,100660.38
2023-05-21T19:12:36.582Z,100657.13
2023-05-21T19:15:07.485Z,100654.16
2023-05-21T19:17:42.160Z,100656.16
2023-05-21T19:20:10.580Z,100650.75
2023-05-21T19:22:41.244Z,100649.63
2023-05-21T19:25:09.743Z,100644.72
2023-05-21T19:27:37.832Z,100653.06
2023-05-21T19:30:07.991Z,100649.91
2023-05-21T19:32:36.380Z,100649.13
2023-05-21T19:35:05.911Z,100654.97
2023-05-21T19:37:37.695Z,100651.06
2023-05-21T19:40:07.882Z,100659.88
2023-05-21T19:42:40.029Z,100657.91
2023-05-21T19:45:33.066Z,100659.88
2023-05-21T19:48:27.798Z,100664.75
2023-05-21T19:50:55.983Z,100661.00
2023-05-21T19:56:46.142Z,100658.22
2023-05-21T19:59:19.953Z,100657.38
2023-05-21T20:01:50.207Z,100658.38
2023-05-21T20:04:18.917Z,100657.06
2023-05-21T20:06:46.772Z,100660.78
2023-05-21T20:09:16.492Z,100659.47
2023-05-21T20:11:45.808Z,100658.31
2023-05-21T20:14:13.957Z,100654.91
2023-05-21T20:16:42.783Z,100649.34
2023-05-21T20:19:11.648Z,100649.00
2023-05-21T20:21:40.000Z,100659.44
2023-05-21T20:24:08.938Z,100655.50
2023-05-21T20:26:36.748Z,100652.25
2023-05-21T20:29:07.065Z,100648.47
2023-05-21T20:31:35.194Z,100652.75
2023-05-21T20:34:09.385Z,100646.69
2023-05-21T20:36:37.660Z,100653.53
2023-05-21T20:39:06.480Z,100660.41
2023-05-21T20:41:37.877Z,100656.81
2023-05-21T20:44:06.775Z,100664.16
2023-05-21T20:46:38.877Z,100658.13
2023-05-21T20:49:07.889Z,100665.31
2023-05-21T20:51:36.178Z,100662.72
2023-05-21T20:54:04.121Z,100664.66
2023-05-21T20:59:03.131Z,100664.66
2023-05-21T21:01:31.465Z,100668.91
2023-05-21T21:03:59.674Z,100665.88
2023-05-21T21:06:30.263Z,100666.06
2023-05-21T21:08:58.918Z,100666.72
2023-05-21T21:11:27.221Z,100666.75
2023-05-21T21:13:55.616Z,100675.22
2023-05-21T21:16:23.280Z,100679.00
2023-05-21T21:18:51.264Z,100675.22
2023-05-21T21:21:19.997Z,100671.00
2023-05-21T21:23:48.188Z,100679.47
2023-05-21T21:26:18.081Z,100671.94
2023-05-21T21:28:46.998Z,100670.00
2023-05-21T21:31:18.222Z,100674.91
2023-05-21T21:33:49.615Z,100670.97
2023-05-21T21:36:19.570Z,100674.41
2023-05-21T21:38:47.736Z,100670.66
2023-05-21T21:41:16.394Z,100664.13
2023-05-21T21:43:44.308Z,100666.41
2023-05-21T21:46:19.367Z,100662.66
2023-05-21T21:48:50.555Z,100650.75
2023-05-21T21:51:23.414Z,100664.44
2023-05-21T21:53:53.090Z,100654.31
2023-05-21T21:56:22.557Z,100654.97
2023-05-21T21:58:51.954Z,100652.38
2023-05-21T22:01:32.164Z,100647.16
2023-05-21T22:03:59.962Z,100657.13
2023-05-21T22:06:28.719Z,100649.94
2023-05-21T22:08:57.045Z,100649.28
2023-05-21T22:11:26.678Z,100646.50
2023-05-21T22:13:54.578Z,100652.56
2023-05-21T22:16:24.888Z,100661.34
2023-05-21T22:18:54.525Z,100647.50
2023-05-21T22:21:27.298Z,100648.47
2023-05-21T22:23:56.342Z,100644.88
2023-05-21T22:26:24.016Z,100649.44
2023-05-21T22:28:52.462Z,100638.19
2023-05-21T22:31:24.500Z,100645.88
2023-05-21T22:33:52.610Z,100639.81
2023-05-21T22:36:23.157Z,100635.75
2023-05-21T22:38:51.292Z,100634.09
2023-05-21T22:41:20.014Z,100638.53
2023-05-21T22:43:49.285Z,100635.41
2023-05-21T22:46:17.494Z,100628.06
2023-05-21T22:48:46.334Z,100633.59
2023-05-21T22:51:15.162Z,100631.63
2023-05-21T22:53:43.433Z,100630.66
2023-05-21T22:56:12.167Z,100625.75
2023-05-21T22:58:40.419Z,100633.03
2023-05-21T23:01:08.831Z,100637.94
2023-05-21T23:03:38.959Z,100626.81
2023-05-21T23:06:07.669Z,100632.50
2023-05-21T23:08:35.989Z,100643.41
2023-05-21T23:11:08.087Z,100638.13
2023-05-21T23:13:36.341Z,100640.59
2023-05-21T23:16:04.646Z,100638.59
2023-05-21T23:18:33.353Z,100628.34
2023-05-21T23:21:02.222Z,100627.53
2023-05-21T23:23:31.120Z,100625.75
2023-05-21T23:25:59.395Z,100628.34
2023-05-21T23:28:27.982Z,100626.53
2023-05-21T23:30:56.918Z,100618.22
2023-05-21T23:33:24.998Z,100639.94
2023-05-21T23:35:53.250Z,100623.47
2023-05-21T23:38:22.296Z,100638.84
2023-05-21T23:40:52.493Z,100625.53
2023-05-21T23:43:22.979Z,100634.84
2023-05-21T23:45:51.065Z,100631.44
2023-05-21T23:48:19.157Z,100642.06
2023-05-21T23:50:47.536Z,100636.03
2023-05-21T23:53:15.501Z,100638.31
2023-05-21T23:55:44.611Z,100631.81
2023-05-21T23:58:15.857Z,100640.94
